sensor_id;sensor_type;location;lat;lon;timestamp;P1;durP1;ratioP1;P2;durP2;ratioP2
77146;SDS011;66121;52.584;9.694;2023-03-01T00:01:36;11.73;;;4.95;;
77146;SDS011;66121;52.584;9.694;2023-03-01T00:04:01;11.13;;;5.38;;
77146;SDS011;66121;52.584;9.694;2023-03-01T00:06:27;10.53;;;4.80;;
77146;SDS011;66121;52.584;9.694;2023-03-01T00:08:52;11.65;;;5.43;;
77146;SDS011;66121;52.584;9.694;2023-03-01T00:13:55;12.52;;;6.68;;
77146;SDS011;66121;52.584;9.694;2023-03-01T00:16:23;10.55;;;6.25;;
77146;SDS011;66121;52.584;9.694;2023-03-01T00:18:51;11.15;;;5.93;;
77146;SDS011;66121;52.584;9.694;2023-03-01T00:21:16;12.88;;;6.85;;
77146;SDS011;66121;52.584;9.694;2023-03-01T00:23:42;10.85;;;5.55;;
77146;SDS011;66121;52.584;9.694;2023-03-01T00:26:09;11.40;;;5.57;;
77146;SDS011;66121;52.584;9.694;2023-03-01T00:28:37;14.43;;;5.85;;
77146;SDS011;66121;52.584;9.694;2023-03-01T00:31:03;11.27;;;5.97;;
77146;SDS011;66121;52.584;9.694;2023-03-01T00:33:29;15.15;;;6.38;;
77146;SDS011;66121;52.584;9.694;2023-03-01T00:35:57;13.10;;;6.17;;
77146;SDS011;66121;52.584;9.694;2023-03-01T00:38:23;11.80;;;6.45;;
77146;SDS011;66121;52.584;9.694;2023-03-01T00:40:48;13.07;;;7.00;;
77146;SDS011;66121;52.584;9.694;2023-03-01T00:43:13;11.40;;;6.20;;
77146;SDS011;66121;52.584;9.694;2023-03-01T00:45:38;15.23;;;7.25;;
77146;SDS011;66121;52.584;9.694;2023-03-01T00:48:04;12.40;;;6.10;;
77146;SDS011;66121;52.584;9.694;2023-03-01T00:50:30;10.73;;;5.88;;
77146;SDS011;66121;52.584;9.694;2023-03-01T00:52:55;11.60;;;6.30;;
77146;SDS011;66121;52.584;9.694;2023-03-01T00:55:21;13.00;;;5.70;;
77146;SDS011;66121;52.584;9.694;2023-03-01T00:57:47;11.77;;;6.93;;
77146;SDS011;66121;52.584;9.694;2023-03-01T01:00:12;12.07;;;5.38;;
77146;SDS011;66121;52.584;9.694;2023-03-01T01:02:38;9.85;;;5.70;;
77146;SDS011;66121;52.584;9.694;2023-03-01T01:05:03;11.23;;;6.23;;
77146;SDS011;66121;52.584;9.694;2023-03-01T01:07:29;12.60;;;6.20;;
77146;SDS011;66121;52.584;9.694;2023-03-01T01:09:54;12.90;;;6.00;;
77146;SDS011;66121;52.584;9.694;2023-03-01T01:12:20;15.40;;;6.05;;
77146;SDS011;66121;52.584;9.694;2023-03-01T01:14:45;13.95;;;5.70;;
77146;SDS011;66121;52.584;9.694;2023-03-01T01:17:11;10.60;;;5.90;;
77146;SDS011;66121;52.584;9.694;2023-03-01T01:19:36;11.18;;;5.68;;
77146;SDS011;66121;52.584;9.694;2023-03-01T01:22:02;13.68;;;5.38;;
77146;SDS011;66121;52.584;9.694;2023-03-01T01:24:28;9.50;;;5.05;;
77146;SDS011;66121;52.584;9.694;2023-03-01T01:26:53;10.30;;;5.18;;
77146;SDS011;66121;52.584;9.694;2023-03-01T01:29:19;9.80;;;4.97;;
77146;SDS011;66121;52.584;9.694;2023-03-01T01:31:44;9.43;;;5.32;;
77146;SDS011;66121;52.584;9.694;2023-03-01T01:34:14;11.85;;;5.40;;
77146;SDS011;66121;52.584;9.694;2023-03-01T01:36:40;8.65;;;5.15;;
77146;SDS011;66121;52.584;9.694;2023-03-01T01:39:06;13.23;;;5.78;;
77146;SDS011;66121;52.584;9.694;2023-03-01T01:41:32;10.45;;;5.47;;
77146;SDS011;66121;52.584;9.694;2023-03-01T01:46:50;9.98;;;5.82;;
77146;SDS011;66121;52.584;9.694;2023-03-01T01:51:49;8.38;;;5.00;;
77146;SDS011;66121;52.584;9.694;2023-03-01T01:54:21;10.40;;;4.63;;
77146;SDS011;66121;52.584;9.694;2023-03-01T01:56:57;24.38;;;10.32;;
77146;SDS011;66121;52.584;9.694;2023-03-01T01:59:26;12.55;;;6.45;;
77146;SDS011;66121;52.584;9.694;2023-03-01T02:01:54;11.63;;;6.10;;
77146;SDS011;66121;52.584;9.694;2023-03-01T02:04:20;10.93;;;5.80;;
77146;SDS011;66121;52.584;9.694;2023-03-01T02:06:48;11.27;;;5.97;;
77146;SDS011;66121;52.584;9.694;2023-03-01T02:09:21;9.35;;;5.43;;
77146;SDS011;66121;52.584;9.694;2023-03-01T02:11:48;14.68;;;6.18;;
77146;SDS011;66121;52.584;9.694;2023-03-01T02:14:15;12.45;;;6.00;;
77146;SDS011;66121;52.584;9.694;2023-03-01T02:16:41;9.77;;;5.65;;
77146;SDS011;66121;52.584;9.694;2023-03-01T02:19:07;10.68;;;6.00;;
77146;SDS011;66121;52.584;9.694;2023-03-01T02:21:38;11.10;;;6.57;;
77146;SDS011;66121;52.584;9.694;2023-03-01T02:26:57;11.07;;;5.43;;
77146;SDS011;66121;52.584;9.694;2023-03-01T02:29:23;9.50;;;5.28;;
77146;SDS011;66121;52.584;9.694;2023-03-01T02:31:50;12.18;;;5.80;;
77146;SDS011;66121;52.584;9.694;2023-03-01T02:34:21;11.27;;;5.63;;
77146;SDS011;66121;52.584;9.694;2023-03-01T02:39:33;9.00;;;5.35;;
77146;SDS011;66121;52.584;9.694;2023-03-01T02:42:07;12.35;;;5.35;;
77146;SDS011;66121;52.584;9.694;2023-03-01T02:44:37;9.13;;;5.38;;
77146;SDS011;66121;52.584;9.694;2023-03-01T02:47:02;15.88;;;5.63;;
77146;SDS011;66121;52.584;9.694;2023-03-01T02:49:30;12.30;;;5.70;;
77146;SDS011;66121;52.584;9.694;2023-03-01T02:55:03;10.73;;;5.85;;
77146;SDS011;66121;52.584;9.694;2023-03-01T02:57:33;8.68;;;4.93;;
77146;SDS011;66121;52.584;9.694;2023-03-01T03:00:02;11.00;;;5.53;;
77146;SDS011;66121;52.584;9.694;2023-03-01T03:02:32;11.00;;;5.25;;
77146;SDS011;66121;52.584;9.694;2023-03-01T03:05:08;13.40;;;6.75;;
77146;SDS011;66121;52.584;9.694;2023-03-01T03:07:37;11.93;;;5.35;;
77146;SDS011;66121;52.584;9.694;2023-03-01T03:10:05;9.18;;;4.65;;
77146;SDS011;66121;52.584;9.694;2023-03-01T03:12:33;9.05;;;5.18;;
77146;SDS011;66121;52.584;9.694;2023-03-01T03:14:58;10.77;;;5.03;;
77146;SDS011;66121;52.584;9.694;2023-03-01T03:17:24;7.80;;;5.60;;
77146;SDS011;66121;52.584;9.694;2023-03-01T03:19:49;9.05;;;4.95;;
77146;SDS011;66121;52.584;9.694;2023-03-01T03:22:14;8.03;;;4.57;;
77146;SDS011;66121;52.584;9.694;2023-03-01T03:24:40;11.25;;;4.95;;
77146;SDS011;66121;52.584;9.694;2023-03-01T03:27:05;9.18;;;5.32;;
77146;SDS011;66121;52.584;9.694;2023-03-01T03:29:32;9.93;;;4.88;;
77146;SDS011;66121;52.584;9.694;2023-03-01T03:31:57;8.43;;;4.50;;
77146;SDS011;66121;52.584;9.694;2023-03-01T03:34:23;7.72;;;4.50;;
77146;SDS011;66121;52.584;9.694;2023-03-01T03:36:52;8.10;;;4.60;;
77146;SDS011;66121;52.584;9.694;2023-03-01T03:39:23;10.18;;;4.75;;
77146;SDS011;66121;52.584;9.694;2023-03-01T03:41:49;7.77;;;4.30;;
77146;SDS011;66121;52.584;9.694;2023-03-01T03:44:14;9.07;;;4.87;;
77146;SDS011;66121;52.584;9.694;2023-03-01T03:46:39;9.98;;;4.75;;
77146;SDS011;66121;52.584;9.694;2023-03-01T03:49:05;8.67;;;5.37;;
77146;SDS011;66121;52.584;9.694;2023-03-01T03:51:30;8.17;;;4.63;;
77146;SDS011;66121;52.584;9.694;2023-03-01T03:53:55;9.87;;;4.40;;
77146;SDS011;66121;52.584;9.694;2023-03-01T03:56:20;10.00;;;4.47;;
77146;SDS011;66121;52.584;9.694;2023-03-01T03:58:51;7.88;;;4.63;;
77146;SDS011;66121;52.584;9.694;2023-03-01T04:01:19;7.28;;;4.25;;
77146;SDS011;66121;52.584;9.694;2023-03-01T04:03:45;8.95;;;4.78;;
77146;SDS011;66121;52.584;9.694;2023-03-01T04:06:11;10.45;;;5.22;;
77146;SDS011;66121;52.584;9.694;2023-03-01T04:08:38;8.90;;;4.35;;
77146;SDS011;66121;52.584;9.694;2023-03-01T04:11:03;10.95;;;4.72;;
77146;SDS011;66121;52.584;9.694;2023-03-01T04:13:48;10.95;;;4.93;;
77146;SDS011;66121;52.584;9.694;2023-03-01T04:16:14;10.75;;;4.45;;
77146;SDS011;66121;52.584;9.694;2023-03-01T04:18:39;8.75;;;4.78;;
77146;SDS011;66121;52.584;9.694;2023-03-01T04:21:04;9.27;;;5.07;;
77146;SDS011;66121;52.584;9.694;2023-03-01T04:23:30;11.55;;;5.75;;
77146;SDS011;66121;52.584;9.694;2023-03-01T04:25:55;8.97;;;4.60;;
77146;SDS011;66121;52.584;9.694;2023-03-01T04:28:26;9.23;;;4.05;;
77146;SDS011;66121;52.584;9.694;2023-03-01T04:30:54;11.55;;;5.32;;
77146;SDS011;66121;52.584;9.694;2023-03-01T04:33:21;11.90;;;5.38;;
77146;SDS011;66121;52.584;9.694;2023-03-01T04:35:47;7.20;;;4.28;;
77146;SDS011;66121;52.584;9.694;2023-03-01T04:38:16;10.52;;;5.07;;
77146;SDS011;66121;52.584;9.694;2023-03-01T04:40:42;10.80;;;5.18;;
77146;SDS011;66121;52.584;9.694;2023-03-01T04:43:08;10.50;;;5.23;;
77146;SDS011;66121;52.584;9.694;2023-03-01T04:45:35;9.20;;;4.80;;
77146;SDS011;66121;52.584;9.694;2023-03-01T04:48:01;10.77;;;5.20;;
77146;SDS011;66121;52.584;9.694;2023-03-01T04:50:27;8.77;;;5.05;;
77146;SDS011;66121;52.584;9.694;2023-03-01T04:52:52;9.02;;;4.45;;
77146;SDS011;66121;52.584;9.694;2023-03-01T04:55:18;9.90;;;4.97;;
77146;SDS011;66121;52.584;9.694;2023-03-01T04:57:43;13.68;;;5.50;;
77146;SDS011;66121;52.584;9.694;2023-03-01T05:00:12;8.98;;;5.00;;
77146;SDS011;66121;52.584;9.694;2023-03-01T05:02:55;7.75;;;4.45;;
77146;SDS011;66121;52.584;9.694;2023-03-01T05:05:23;9.55;;;5.30;;
77146;SDS011;66121;52.584;9.694;2023-03-01T05:07:57;8.73;;;4.78;;
77146;SDS011;66121;52.584;9.694;2023-03-01T05:10:25;11.45;;;5.80;;
77146;SDS011;66121;52.584;9.694;2023-03-01T05:12:51;9.50;;;5.05;;
77146;SDS011;66121;52.584;9.694;2023-03-01T05:15:19;10.48;;;5.35;;
77146;SDS011;66121;52.584;9.694;2023-03-01T05:17:46;10.10;;;5.13;;
77146;SDS011;66121;52.584;9.694;2023-03-01T05:20:12;8.07;;;5.05;;
77146;SDS011;66121;52.584;9.694;2023-03-01T05:22:38;10.43;;;4.93;;
77146;SDS011;66121;52.584;9.694;2023-03-01T05:25:03;9.50;;;5.10;;
77146;SDS011;66121;52.584;9.694;2023-03-01T05:27:29;11.77;;;5.43;;
77146;SDS011;66121;52.584;9.694;2023-03-01T05:29:55;13.27;;;5.30;;
77146;SDS011;66121;52.584;9.694;2023-03-01T05:32:21;9.80;;;5.13;;
77146;SDS011;66121;52.584;9.694;2023-03-01T05:34:46;7.93;;;4.73;;
77146;SDS011;66121;52.584;9.694;2023-03-01T05:37:12;8.50;;;5.45;;
77146;SDS011;66121;52.584;9.694;2023-03-01T05:39:38;11.70;;;5.90;;
77146;SDS011;66121;52.584;9.694;2023-03-01T05:42:04;8.52;;;4.60;;
77146;SDS011;66121;52.584;9.694;2023-03-01T05:44:30;8.82;;;5.82;;
77146;SDS011;66121;52.584;9.694;2023-03-01T05:46:55;8.48;;;4.43;;
77146;SDS011;66121;52.584;9.694;2023-03-01T05:49:21;10.98;;;5.22;;
77146;SDS011;66121;52.584;9.694;2023-03-01T05:51:51;8.35;;;4.90;;
77146;SDS011;66121;52.584;9.694;2023-03-01T05:54:18;7.93;;;4.35;;
77146;SDS011;66121;52.584;9.694;2023-03-01T05:56:44;9.30;;;5.70;;
77146;SDS011;66121;52.584;9.694;2023-03-01T05:59:10;10.70;;;5.25;;
77146;SDS011;66121;52.584;9.694;2023-03-01T06:01:37;12.05;;;6.57;;
77146;SDS011;66121;52.584;9.694;2023-03-01T06:04:02;14.70;;;6.10;;
77146;SDS011;66121;52.584;9.694;2023-03-01T06:06:28;14.52;;;5.63;;
77146;SDS011;66121;52.584;9.694;2023-03-01T06:08:54;11.52;;;6.10;;
77146;SDS011;66121;52.584;9.694;2023-03-01T06:11:20;9.18;;;5.07;;
77146;SDS011;66121;52.584;9.694;2023-03-01T06:13:45;7.72;;;4.65;;
77146;SDS011;66121;52.584;9.694;2023-03-01T06:16:11;9.00;;;4.80;;
77146;SDS011;66121;52.584;9.694;2023-03-01T06:18:37;11.55;;;5.20;;
77146;SDS011;66121;52.584;9.694;2023-03-01T06:21:03;13.40;;;5.03;;
77146;SDS011;66121;52.584;9.694;2023-03-01T06:23:30;10.85;;;5.00;;
77146;SDS011;66121;52.584;9.694;2023-03-01T06:25:55;12.20;;;5.18;;
77146;SDS011;66121;52.584;9.694;2023-03-01T06:28:20;9.93;;;5.35;;
77146;SDS011;66121;52.584;9.694;2023-03-01T06:30:46;10.77;;;4.95;;
77146;SDS011;66121;52.584;9.694;2023-03-01T06:33:11;11.20;;;4.80;;
77146;SDS011;66121;52.584;9.694;2023-03-01T06:35:37;16.37;;;5.50;;
77146;SDS011;66121;52.584;9.694;2023-03-01T06:38:03;8.23;;;4.90;;
77146;SDS011;66121;52.584;9.694;2023-03-01T06:40:29;11.82;;;4.95;;
77146;SDS011;66121;52.584;9.694;2023-03-01T06:42:56;13.07;;;6.15;;
77146;SDS011;66121;52.584;9.694;2023-03-01T06:45:22;9.15;;;5.00;;
77146;SDS011;66121;52.584;9.694;2023-03-01T06:47:48;11.35;;;5.05;;
77146;SDS011;66121;52.584;9.694;2023-03-01T06:50:17;12.25;;;5.35;;
77146;SDS011;66121;52.584;9.694;2023-03-01T06:52:43;9.82;;;5.35;;
77146;SDS011;66121;52.584;9.694;2023-03-01T06:55:10;14.05;;;6.25;;
77146;SDS011;66121;52.584;9.694;2023-03-01T06:57:36;10.00;;;5.20;;
77146;SDS011;66121;52.584;9.694;2023-03-01T07:00:02;11.25;;;5.03;;
77146;SDS011;66121;52.584;9.694;2023-03-01T07:02:28;11.05;;;5.07;;
77146;SDS011;66121;52.584;9.694;2023-03-01T07:04:54;9.33;;;4.67;;
77146;SDS011;66121;52.584;9.694;2023-03-01T07:07:19;7.63;;;4.87;;
77146;SDS011;66121;52.584;9.694;2023-03-01T07:09:45;11.23;;;4.85;;
77146;SDS011;66121;52.584;9.694;2023-03-01T07:12:10;12.82;;;5.20;;
77146;SDS011;66121;52.584;9.694;2023-03-01T07:14:36;13.05;;;5.88;;
77146;SDS011;66121;52.584;9.694;2023-03-01T07:17:01;14.67;;;5.90;;
77146;SDS011;66121;52.584;9.694;2023-03-01T07:19:27;12.32;;;5.78;;
77146;SDS011;66121;52.584;9.694;2023-03-01T07:21:52;12.73;;;5.53;;
77146;SDS011;66121;52.584;9.694;2023-03-01T07:24:18;13.38;;;5.60;;
77146;SDS011;66121;52.584;9.694;2023-03-01T07:26:43;14.55;;;6.05;;
77146;SDS011;66121;52.584;9.694;2023-03-01T07:29:09;10.15;;;5.78;;
77146;SDS011;66121;52.584;9.694;2023-03-01T07:31:35;11.60;;;5.97;;
77146;SDS011;66121;52.584;9.694;2023-03-01T07:34:01;10.77;;;6.35;;
77146;SDS011;66121;52.584;9.694;2023-03-01T07:36:27;15.77;;;7.32;;
77146;SDS011;66121;52.584;9.694;2023-03-01T07:38:52;10.00;;;6.27;;
77146;SDS011;66121;52.584;9.694;2023-03-01T07:41:20;11.88;;;6.40;;
77146;SDS011;66121;52.584;9.694;2023-03-01T07:43:45;12.27;;;6.20;;
77146;SDS011;66121;52.584;9.694;2023-03-01T07:46:11;15.70;;;7.70;;
77146;SDS011;66121;52.584;9.694;2023-03-01T07:48:36;14.33;;;6.97;;
77146;SDS011;66121;52.584;9.694;2023-03-01T07:51:03;12.07;;;7.03;;
77146;SDS011;66121;52.584;9.694;2023-03-01T07:53:29;15.10;;;7.07;;
77146;SDS011;66121;52.584;9.694;2023-03-01T07:56:03;12.75;;;6.07;;
77146;SDS011;66121;52.584;9.694;2023-03-01T07:58:30;12.15;;;6.07;;
77146;SDS011;66121;52.584;9.694;2023-03-01T08:00:55;11.20;;;6.13;;
77146;SDS011;66121;52.584;9.694;2023-03-01T08:03:21;11.10;;;6.10;;
77146;SDS011;66121;52.584;9.694;2023-03-01T08:05:46;12.13;;;6.55;;
77146;SDS011;66121;52.584;9.694;2023-03-01T08:08:11;14.13;;;7.63;;
77146;SDS011;66121;52.584;9.694;2023-03-01T08:10:36;13.77;;;7.33;;
77146;SDS011;66121;52.584;9.694;2023-03-01T08:13:02;11.80;;;6.60;;
77146;SDS011;66121;52.584;9.694;2023-03-01T08:15:27;17.67;;;7.85;;
77146;SDS011;66121;52.584;9.694;2023-03-01T08:17:53;30.60;;;9.37;;
77146;SDS011;66121;52.584;9.694;2023-03-01T08:20:18;13.43;;;8.73;;
77146;SDS011;66121;52.584;9.694;2023-03-01T08:22:43;17.83;;;8.70;;
77146;SDS011;66121;52.584;9.694;2023-03-01T08:25:09;27.38;;;13.50;;
77146;SDS011;66121;52.584;9.694;2023-03-01T08:27:34;17.60;;;9.35;;
77146;SDS011;66121;52.584;9.694;2023-03-01T08:29:59;15.93;;;7.63;;
77146;SDS011;66121;52.584;9.694;2023-03-01T08:32:25;17.50;;;7.78;;
77146;SDS011;66121;52.584;9.694;2023-03-01T08:34:50;13.68;;;6.68;;
77146;SDS011;66121;52.584;9.694;2023-03-01T08:37:16;53.23;;;23.93;;
77146;SDS011;66121;52.584;9.694;2023-03-01T08:39:41;16.00;;;9.30;;
77146;SDS011;66121;52.584;9.694;2023-03-01T08:42:06;13.47;;;7.13;;
77146;SDS011;66121;52.584;9.694;2023-03-01T08:44:31;14.17;;;6.67;;
77146;SDS011;66121;52.584;9.694;2023-03-01T08:46:57;16.50;;;6.90;;
77146;SDS011;66121;52.584;9.694;2023-03-01T08:49:23;12.10;;;6.35;;
77146;SDS011;66121;52.584;9.694;2023-03-01T08:51:48;18.55;;;6.13;;
77146;SDS011;66121;52.584;9.694;2023-03-01T08:54:15;10.90;;;5.75;;
77146;SDS011;66121;52.584;9.694;2023-03-01T08:56:42;11.48;;;6.90;;
77146;SDS011;66121;52.584;9.694;2023-03-01T08:59:08;13.73;;;7.38;;
77146;SDS011;66121;52.584;9.694;2023-03-01T09:01:37;14.07;;;8.10;;
77146;SDS011;66121;52.584;9.694;2023-03-01T09:04:11;9.50;;;5.85;;
77146;SDS011;66121;52.584;9.694;2023-03-01T09:06:37;12.05;;;6.05;;
77146;SDS011;66121;52.584;9.694;2023-03-01T09:09:03;12.03;;;6.20;;
77146;SDS011;66121;52.584;9.694;2023-03-01T09:11:29;10.57;;;6.03;;
77146;SDS011;66121;52.584;9.694;2023-03-01T09:13:54;9.38;;;5.60;;
77146;SDS011;66121;52.584;9.694;2023-03-01T09:16:20;10.77;;;5.38;;
77146;SDS011;66121;52.584;9.694;2023-03-01T09:18:51;9.95;;;4.65;;
77146;SDS011;66121;52.584;9.694;2023-03-01T09:21:18;10.35;;;4.55;;
77146;SDS011;66121;52.584;9.694;2023-03-01T09:23:46;7.60;;;4.25;;
77146;SDS011;66121;52.584;9.694;2023-03-01T09:26:14;8.32;;;4.50;;
77146;SDS011;66121;52.584;9.694;2023-03-01T09:28:42;8.18;;;4.07;;
77146;SDS011;66121;52.584;9.694;2023-03-01T09:31:07;8.38;;;4.47;;
77146;SDS011;66121;52.584;9.694;2023-03-01T09:33:33;12.52;;;6.85;;
77146;SDS011;66121;52.584;9.694;2023-03-01T09:35:59;8.18;;;5.72;;
77146;SDS011;66121;52.584;9.694;2023-03-01T09:38:26;10.02;;;5.00;;
77146;SDS011;66121;52.584;9.694;2023-03-01T09:40:52;11.00;;;4.47;;
77146;SDS011;66121;52.584;9.694;2023-03-01T09:46:12;8.60;;;5.20;;
77146;SDS011;66121;52.584;9.694;2023-03-01T09:48:42;7.68;;;4.57;;
77146;SDS011;66121;52.584;9.694;2023-03-01T09:51:15;9.52;;;4.45;;
77146;SDS011;66121;52.584;9.694;2023-03-01T09:53:49;7.65;;;4.38;;
77146;SDS011;66121;52.584;9.694;2023-03-01T09:56:27;7.57;;;4.47;;
77146;SDS011;66121;52.584;9.694;2023-03-01T09:59:25;8.10;;;4.57;;
77146;SDS011;66121;52.584;9.694;2023-03-01T10:09:36;6.75;;;3.97;;
77146;SDS011;66121;52.584;9.694;2023-03-01T10:12:04;6.05;;;3.25;;
77146;SDS011;66121;52.584;9.694;2023-03-01T10:14:48;17.58;;;7.35;;
77146;SDS011;66121;52.584;9.694;2023-03-01T10:22:48;5.32;;;3.28;;
77146;SDS011;66121;52.584;9.694;2023-03-01T10:25:20;8.55;;;6.15;;
77146;SDS011;66121;52.584;9.694;2023-03-01T10:28:25;6.32;;;3.70;;
77146;SDS011;66121;52.584;9.694;2023-03-01T10:31:01;7.13;;;3.10;;
77146;SDS011;66121;52.584;9.694;2023-03-01T10:33:29;7.28;;;3.53;;
77146;SDS011;66121;52.584;9.694;2023-03-01T10:35:57;7.50;;;2.80;;
77146;SDS011;66121;52.584;9.694;2023-03-01T10:38:22;6.10;;;2.55;;
77146;SDS011;66121;52.584;9.694;2023-03-01T10:40:52;6.40;;;2.70;;
77146;SDS011;66121;52.584;9.694;2023-03-01T10:43:18;7.70;;;3.33;;
77146;SDS011;66121;52.584;9.694;2023-03-01T10:45:44;4.97;;;2.53;;
77146;SDS011;66121;52.584;9.694;2023-03-01T10:50:49;5.30;;;2.58;;
77146;SDS011;66121;52.584;9.694;2023-03-01T10:53:32;5.97;;;3.22;;
77146;SDS011;66121;52.584;9.694;2023-03-01T10:56:10;6.78;;;3.15;;
77146;SDS011;66121;52.584;9.694;2023-03-01T10:58:41;6.60;;;2.72;;
77146;SDS011;66121;52.584;9.694;2023-03-01T11:01:24;6.05;;;2.95;;
77146;SDS011;66121;52.584;9.694;2023-03-01T11:04:12;6.00;;;2.95;;
77146;SDS011;66121;52.584;9.694;2023-03-01T11:06:39;5.45;;;3.10;;
77146;SDS011;66121;52.584;9.694;2023-03-01T11:11:43;6.95;;;3.03;;
77146;SDS011;66121;52.584;9.694;2023-03-01T11:14:14;6.05;;;3.15;;
77146;SDS011;66121;52.584;9.694;2023-03-01T11:16:45;5.68;;;3.35;;
77146;SDS011;66121;52.584;9.694;2023-03-01T11:19:14;6.75;;;3.15;;
77146;SDS011;66121;52.584;9.694;2023-03-01T11:24:34;8.50;;;3.58;;
77146;SDS011;66121;52.584;9.694;2023-03-01T11:27:04;5.90;;;3.00;;
77146;SDS011;66121;52.584;9.694;2023-03-01T11:29:51;10.32;;;3.53;;
77146;SDS011;66121;52.584;9.694;2023-03-01T11:32:20;4.93;;;2.83;;
77146;SDS011;66121;52.584;9.694;2023-03-01T11:34:54;5.82;;;3.00;;
77146;SDS011;66121;52.584;9.694;2023-03-01T11:52:08;4.78;;;2.95;;
77146;SDS011;66121;52.584;9.694;2023-03-01T12:05:48;7.07;;;2.97;;
77146;SDS011;66121;52.584;9.694;2023-03-01T12:13:52;4.63;;;2.78;;
77146;SDS011;66121;52.584;9.694;2023-03-01T12:19:16;5.30;;;2.78;;
77146;SDS011;66121;52.584;9.694;2023-03-01T12:25:00;5.57;;;2.75;;
77146;SDS011;66121;52.584;9.694;2023-03-01T12:44:47;3.38;;;2.22;;
77146;SDS011;66121;52.584;9.694;2023-03-01T12:50:18;5.15;;;3.10;;
77146;SDS011;66121;52.584;9.694;2023-03-01T12:52:51;5.05;;;2.67;;
77146;SDS011;66121;52.584;9.694;2023-03-01T13:00:51;6.63;;;2.38;;
77146;SDS011;66121;52.584;9.694;2023-03-01T13:03:31;4.95;;;1.90;;
77146;SDS011;66121;52.584;9.694;2023-03-01T13:06:15;3.72;;;2.55;;
77146;SDS011;66121;52.584;9.694;2023-03-01T13:08:49;4.15;;;2.33;;
77146;SDS011;66121;52.584;9.694;2023-03-01T13:11:20;5.00;;;2.88;;
77146;SDS011;66121;52.584;9.694;2023-03-01T13:13:46;6.18;;;2.65;;
77146;SDS011;66121;52.584;9.694;2023-03-01T13:19:36;4.65;;;2.22;;
77146;SDS011;66121;52.584;9.694;2023-03-01T13:21:45;4.72;;;2.45;;
77146;SDS011;66121;52.584;9.694;2023-03-01T13:29:30;3.92;;;2.05;;
77146;SDS011;66121;52.584;9.694;2023-03-01T13:32:12;5.07;;;2.30;;
77146;SDS011;66121;52.584;9.694;2023-03-01T13:34:47;2.60;;;1.80;;
77146;SDS011;66121;52.584;9.694;2023-03-01T13:37:21;4.25;;;2.30;;
77146;SDS011;66121;52.584;9.694;2023-03-01T13:39:51;4.38;;;2.33;;
77146;SDS011;66121;52.584;9.694;2023-03-01T13:47:42;3.70;;;2.00;;
77146;SDS011;66121;52.584;9.694;2023-03-01T13:50:16;5.10;;;2.13;;
77146;SDS011;66121;52.584;9.694;2023-03-01T13:53:04;3.50;;;2.30;;
77146;SDS011;66121;52.584;9.694;2023-03-01T13:55:36;3.92;;;1.98;;
77146;SDS011;66121;52.584;9.694;2023-03-01T14:00:44;3.42;;;2.30;;
77146;SDS011;66121;52.584;9.694;2023-03-01T14:03:11;5.15;;;2.42;;
77146;SDS011;66121;52.584;9.694;2023-03-01T14:05:43;3.88;;;2.53;;
77146;SDS011;66121;52.584;9.694;2023-03-01T14:08:29;5.28;;;2.20;;
77146;SDS011;66121;52.584;9.694;2023-03-01T14:13:28;5.43;;;2.47;;
77146;SDS011;66121;52.584;9.694;2023-03-01T14:18:52;5.05;;;2.08;;
77146;SDS011;66121;52.584;9.694;2023-03-01T14:21:29;3.30;;;2.05;;
77146;SDS011;66121;52.584;9.694;2023-03-01T14:23:55;5.45;;;2.00;;
77146;SDS011;66121;52.584;9.694;2023-03-01T14:26:22;4.15;;;1.98;;
77146;SDS011;66121;52.584;9.694;2023-03-01T14:28:47;4.35;;;1.90;;
77146;SDS011;66121;52.584;9.694;2023-03-01T14:31:35;6.78;;;2.15;;
77146;SDS011;66121;52.584;9.694;2023-03-01T14:34:04;4.50;;;2.95;;
77146;SDS011;66121;52.584;9.694;2023-03-01T14:36:30;4.88;;;2.00;;
77146;SDS011;66121;52.584;9.694;2023-03-01T14:38:57;4.70;;;2.67;;
77146;SDS011;66121;52.584;9.694;2023-03-01T14:41:29;5.97;;;1.92;;
77146;SDS011;66121;52.584;9.694;2023-03-01T14:44:00;3.65;;;2.25;;
77146;SDS011;66121;52.584;9.694;2023-03-01T14:46:30;3.88;;;2.25;;
77146;SDS011;66121;52.584;9.694;2023-03-01T14:51:39;4.53;;;2.50;;
77146;SDS011;66121;52.584;9.694;2023-03-01T14:57:14;6.18;;;2.58;;
77146;SDS011;66121;52.584;9.694;2023-03-01T15:02:13;2.55;;;1.60;;
77146;SDS011;66121;52.584;9.694;2023-03-01T15:04:43;5.53;;;2.25;;
77146;SDS011;66121;52.584;9.694;2023-03-01T15:07:12;3.92;;;2.33;;
77146;SDS011;66121;52.584;9.694;2023-03-01T15:09:39;3.55;;;1.90;;
77146;SDS011;66121;52.584;9.694;2023-03-01T15:17:55;3.75;;;1.70;;
77146;SDS011;66121;52.584;9.694;2023-03-01T15:20:24;4.30;;;1.95;;
77146;SDS011;66121;52.584;9.694;2023-03-01T15:22:51;3.22;;;1.90;;
77146;SDS011;66121;52.584;9.694;2023-03-01T15:25:18;4.22;;;1.80;;
77146;SDS011;66121;52.584;9.694;2023-03-01T15:27:46;3.20;;;1.80;;
77146;SDS011;66121;52.584;9.694;2023-03-01T15:30:17;2.42;;;1.50;;
77146;SDS011;66121;52.584;9.694;2023-03-01T15:32:45;2.85;;;1.50;;
77146;SDS011;66121;52.584;9.694;2023-03-01T15:38:23;4.47;;;2.85;;
77146;SDS011;66121;52.584;9.694;2023-03-01T15:40:49;5.65;;;2.60;;
77146;SDS011;66121;52.584;9.694;2023-03-01T15:43:36;3.70;;;2.40;;
77146;SDS011;66121;52.584;9.694;2023-03-01T15:46:17;2.95;;;1.70;;
77146;SDS011;66121;52.584;9.694;2023-03-01T15:48:46;2.50;;;1.67;;
77146;SDS011;66121;52.584;9.694;2023-03-01T15:51:17;3.05;;;1.75;;
77146;SDS011;66121;52.584;9.694;2023-03-01T15:53:50;2.90;;;1.75;;
77146;SDS011;66121;52.584;9.694;2023-03-01T15:56:17;3.05;;;1.60;;
77146;SDS011;66121;52.584;9.694;2023-03-01T15:58:43;2.80;;;1.70;;
77146;SDS011;66121;52.584;9.694;2023-03-01T16:01:10;3.97;;;2.00;;
77146;SDS011;66121;52.584;9.694;2023-03-01T16:03:38;2.35;;;1.50;;
77146;SDS011;66121;52.584;9.694;2023-03-01T16:06:03;3.63;;;1.90;;
77146;SDS011;66121;52.584;9.694;2023-03-01T16:08:28;3.35;;;1.80;;
77146;SDS011;66121;52.584;9.694;2023-03-01T16:10:54;3.13;;;1.67;;
77146;SDS011;66121;52.584;9.694;2023-03-01T16:13:19;3.60;;;1.75;;
77146;SDS011;66121;52.584;9.694;2023-03-01T16:15:44;4.40;;;1.50;;
77146;SDS011;66121;52.584;9.694;2023-03-01T16:18:10;3.40;;;1.63;;
77146;SDS011;66121;52.584;9.694;2023-03-01T16:20:36;3.60;;;1.60;;
77146;SDS011;66121;52.584;9.694;2023-03-01T16:23:02;3.45;;;1.85;;
77146;SDS011;66121;52.584;9.694;2023-03-01T16:25:33;4.30;;;1.98;;
77146;SDS011;66121;52.584;9.694;2023-03-01T16:28:01;2.88;;;1.80;;
77146;SDS011;66121;52.584;9.694;2023-03-01T16:30:35;3.33;;;1.85;;
77146;SDS011;66121;52.584;9.694;2023-03-01T16:33:05;3.45;;;2.00;;
77146;SDS011;66121;52.584;9.694;2023-03-01T16:35:32;5.18;;;1.90;;
77146;SDS011;66121;52.584;9.694;2023-03-01T16:37:59;3.78;;;2.20;;
77146;SDS011;66121;52.584;9.694;2023-03-01T16:40:26;4.85;;;2.00;;
77146;SDS011;66121;52.584;9.694;2023-03-01T16:42:53;3.00;;;1.90;;
77146;SDS011;66121;52.584;9.694;2023-03-01T16:45:20;4.18;;;1.92;;
77146;SDS011;66121;52.584;9.694;2023-03-01T16:47:46;4.30;;;2.53;;
77146;SDS011;66121;52.584;9.694;2023-03-01T16:50:11;2.80;;;1.80;;
77146;SDS011;66121;52.584;9.694;2023-03-01T16:52:36;4.97;;;2.40;;
77146;SDS011;66121;52.584;9.694;2023-03-01T16:55:03;3.42;;;2.03;;
77146;SDS011;66121;52.584;9.694;2023-03-01T16:57:29;5.32;;;2.22;;
77146;SDS011;66121;52.584;9.694;2023-03-01T16:59:55;3.60;;;1.92;;
77146;SDS011;66121;52.584;9.694;2023-03-01T17:02:21;6.25;;;2.33;;
77146;SDS011;66121;52.584;9.694;2023-03-01T17:04:53;5.05;;;2.00;;
77146;SDS011;66121;52.584;9.694;2023-03-01T17:07:20;4.63;;;1.95;;
77146;SDS011;66121;52.584;9.694;2023-03-01T17:09:46;4.50;;;2.35;;